sensor_id;sensor_type;location;lat;lon;timestamp;temperature;humidity
70421;SHT31;57848;51.938;15.520;2024-01-30T00:00:31;5.03;68.99
70421;SHT31;57848;51.938;15.520;2024-01-30T00:02:56;5.05;69.17
70421;SHT31;57848;51.938;15.520;2024-01-30T00:05:21;5.07;69.16
70421;SHT31;57848;51.938;15.520;2024-01-30T00:07:47;5.08;69.23
70421;SHT31;57848;51.938;15.520;2024-01-30T00:10:12;5.01;69.45
70421;SHT31;57848;51.938;15.520;2024-01-30T00:12:37;5.04;69.32
70421;SHT31;57848;51.938;15.520;2024-01-30T00:15:03;5.05;69.31
70421;SHT31;57848;51.938;15.520;2024-01-30T00:17:30;5.07;69.32
70421;SHT31;57848;51.938;15.520;2024-01-30T00:19:55;5.13;69.00
70421;SHT31;57848;51.938;15.520;2024-01-30T00:22:21;5.11;69.03
70421;SHT31;57848;51.938;15.520;2024-01-30T00:24:46;5.08;69.07
70421;SHT31;57848;51.938;15.520;2024-01-30T00:27:11;5.07;69.18
70421;SHT31;57848;51.938;15.520;2024-01-30T00:29:36;5.07;69.13
70421;SHT31;57848;51.938;15.520;2024-01-30T00:32:02;5.11;69.07
70421;SHT31;57848;51.938;15.520;2024-01-30T00:34:27;5.07;69.27
70421;SHT31;57848;51.938;15.520;2024-01-30T00:36:53;5.07;69.35
70421;SHT31;57848;51.938;15.520;2024-01-30T00:39:18;5.04;69.52
70421;SHT31;57848;51.938;15.520;2024-01-30T00:41:45;5.04;69.51
70421;SHT31;57848;51.938;15.520;2024-01-30T00:44:10;5.00;69.64
70421;SHT31;57848;51.938;15.520;2024-01-30T00:46:36;5.04;69.62
70421;SHT31;57848;51.938;15.520;2024-01-30T00:49:01;4.95;69.95
70421;SHT31;57848;51.938;15.520;2024-01-30T00:51:26;4.95;69.83
70421;SHT31;57848;51.938;15.520;2024-01-30T00:53:55;4.90;70.03
70421;SHT31;57848;51.938;15.520;2024-01-30T00:56:20;4.87;70.23
70421;SHT31;57848;51.938;15.520;2024-01-30T00:58:45;4.93;70.09
70421;SHT31;57848;51.938;15.520;2024-01-30T01:01:11;4.81;70.41
70421;SHT31;57848;51.938;15.520;2024-01-30T01:03:36;4.80;70.44
70421;SHT31;57848;51.938;15.520;2024-01-30T01:06:01;4.77;70.66
70421;SHT31;57848;51.938;15.520;2024-01-30T01:08:27;4.76;70.65
70421;SHT31;57848;51.938;15.520;2024-01-30T01:10:52;4.69;71.05
70421;SHT31;57848;51.938;15.520;2024-01-30T01:13:17;4.73;70.97
70421;SHT31;57848;51.938;15.520;2024-01-30T01:15:43;4.60;71.35
70421;SHT31;57848;51.938;15.520;2024-01-30T01:18:08;4.56;71.51
70421;SHT31;57848;51.938;15.520;2024-01-30T01:20:33;4.56;71.66
70421;SHT31;57848;51.938;15.520;2024-01-30T01:22:59;4.49;71.79
70421;SHT31;57848;51.938;15.520;2024-01-30T01:25:24;4.46;71.92
70421;SHT31;57848;51.938;15.520;2024-01-30T01:27:49;4.46;71.95
70421;SHT31;57848;51.938;15.520;2024-01-30T01:30:18;4.45;72.16
70421;SHT31;57848;51.938;15.520;2024-01-30T01:32:51;4.39;72.25
70421;SHT31;57848;51.938;15.520;2024-01-30T01:35:21;4.34;72.43
70421;SHT31;57848;51.938;15.520;2024-01-30T01:37:47;4.34;72.57
70421;SHT31;57848;51.938;15.520;2024-01-30T01:40:20;4.32;72.68
70421;SHT31;57848;51.938;15.520;2024-01-30T01:42:45;4.28;72.74
70421;SHT31;57848;51.938;15.520;2024-01-30T01:45:10;4.24;72.90
70421;SHT31;57848;51.938;15.520;2024-01-30T01:47:36;4.22;73.01
70421;SHT31;57848;51.938;15.520;2024-01-30T01:50:02;4.16;73.17
70421;SHT31;57848;51.938;15.520;2024-01-30T01:52:28;4.09;73.43
70421;SHT31;57848;51.938;15.520;2024-01-30T01:54:54;4.09;73.46
70421;SHT31;57848;51.938;15.520;2024-01-30T01:57:19;4.05;73.63
70421;SHT31;57848;51.938;15.520;2024-01-30T01:59:45;4.02;73.68
70421;SHT31;57848;51.938;15.520;2024-01-30T02:02:11;4.01;73.82
70421;SHT31;57848;51.938;15.520;2024-01-30T02:04:37;4.01;73.75
70421;SHT31;57848;51.938;15.520;2024-01-30T02:07:03;3.98;73.99
70421;SHT31;57848;51.938;15.520;2024-01-30T02:09:28;3.91;74.01
70421;SHT31;57848;51.938;15.520;2024-01-30T02:11:54;3.87;74.39
70421;SHT31;57848;51.938;15.520;2024-01-30T02:14:20;3.88;74.36
70421;SHT31;57848;51.938;15.520;2024-01-30T02:16:45;3.88;74.29
70421;SHT31;57848;51.938;15.520;2024-01-30T02:19:10;3.83;74.53
70421;SHT31;57848;51.938;15.520;2024-01-30T02:21:36;3.85;74.53
70421;SHT31;57848;51.938;15.520;2024-01-30T02:24:02;3.81;74.56
70421;SHT31;57848;51.938;15.520;2024-01-30T02:26:28;3.90;74.26
70421;SHT31;57848;51.938;15.520;2024-01-30T02:28:53;3.94;74.15
70421;SHT31;57848;51.938;15.520;2024-01-30T02:31:18;3.99;73.93
70421;SHT31;57848;51.938;15.520;2024-01-30T02:33:44;4.01;73.87
70421;SHT31;57848;51.938;15.520;2024-01-30T02:36:09;4.04;73.71
70421;SHT31;57848;51.938;15.520;2024-01-30T02:38:34;4.02;73.79
70421;SHT31;57848;51.938;15.520;2024-01-30T02:41:00;4.08;73.51
70421;SHT31;57848;51.938;15.520;2024-01-30T02:43:25;4.14;73.49
70421;SHT31;57848;51.938;15.520;2024-01-30T02:45:50;4.14;73.49
70421;SHT31;57848;51.938;15.520;2024-01-30T02:48:15;4.16;73.32
70421;SHT31;57848;51.938;15.520;2024-01-30T02:50:41;4.12;73.44
70421;SHT31;57848;51.938;15.520;2024-01-30T02:53:06;4.12;73.35
70421;SHT31;57848;51.938;15.520;2024-01-30T02:55:31;4.15;73.17
70421;SHT31;57848;51.938;15.520;2024-01-30T02:57:57;4.11;73.17
70421;SHT31;57848;51.938;15.520;2024-01-30T03:00:23;4.11;73.37
70421;SHT31;57848;51.938;15.520;2024-01-30T03:02:49;4.08;73.51
70421;SHT31;57848;51.938;15.520;2024-01-30T03:05:14;4.11;73.39
70421;SHT31;57848;51.938;15.520;2024-01-30T03:07:39;4.08;73.40
70421;SHT31;57848;51.938;15.520;2024-01-30T03:10:05;4.09;73.30
70421;SHT31;57848;51.938;15.520;2024-01-30T03:12:31;4.08;73.41
70421;SHT31;57848;51.938;15.520;2024-01-30T03:14:56;4.05;73.56
70421;SHT31;57848;51.938;15.520;2024-01-30T03:17:22;4.05;73.44
70421;SHT31;57848;51.938;15.520;2024-01-30T03:19:47;4.01;73.57
70421;SHT31;57848;51.938;15.520;2024-01-30T03:22:12;4.01;73.60
70421;SHT31;57848;51.938;15.520;2024-01-30T03:24:38;4.01;73.55
70421;SHT31;57848;51.938;15.520;2024-01-30T03:27:03;3.94;73.75
70421;SHT31;57848;51.938;15.520;2024-01-30T03:29:28;3.99;73.69
70421;SHT31;57848;51.938;15.520;2024-01-30T03:31:54;3.98;73.74
70421;SHT31;57848;51.938;15.520;2024-01-30T03:34:19;3.88;74.17
70421;SHT31;57848;51.938;15.520;2024-01-30T03:36:44;3.93;73.99
70421;SHT31;57848;51.938;15.520;2024-01-30T03:39:10;3.93;73.91
70421;SHT31;57848;51.938;15.520;2024-01-30T03:41:35;3.91;73.98
70421;SHT31;57848;51.938;15.520;2024-01-30T03:44:01;3.93;73.67
70421;SHT31;57848;51.938;15.520;2024-01-30T03:46:26;3.90;73.88
70421;SHT31;57848;51.938;15.520;2024-01-30T03:48:52;3.90;73.91
70421;SHT31;57848;51.938;15.520;2024-01-30T03:51:17;3.87;73.88
70421;SHT31;57848;51.938;15.520;2024-01-30T03:53:43;3.91;73.81
70421;SHT31;57848;51.938;15.520;2024-01-30T03:56:09;3.91;73.94
70421;SHT31;57848;51.938;15.520;2024-01-30T03:58:34;3.91;73.68
70421;SHT31;57848;51.938;15.520;2024-01-30T04:01:00;3.94;73.65
70421;SHT31;57848;51.938;15.520;2024-01-30T04:03:25;3.90;73.84
70421;SHT31;57848;51.938;15.520;2024-01-30T04:05:54;3.90;73.77
70421;SHT31;57848;51.938;15.520;2024-01-30T04:08:19;3.91;73.77
70421;SHT31;57848;51.938;15.520;2024-01-30T04:10:46;3.85;73.93
70421;SHT31;57848;51.938;15.520;2024-01-30T04:13:11;3.84;74.10
70421;SHT31;57848;51.938;15.520;2024-01-30T04:15:37;3.80;74.19
70421;SHT31;57848;51.938;15.520;2024-01-30T04:18:02;3.78;74.03
70421;SHT31;57848;51.938;15.520;2024-01-30T04:20:28;3.80;74.16
70421;SHT31;57848;51.938;15.520;2024-01-30T04:22:54;3.77;74.22
70421;SHT31;57848;51.938;15.520;2024-01-30T04:25:19;3.81;74.29
70421;SHT31;57848;51.938;15.520;2024-01-30T04:27:45;3.75;74.49
70421;SHT31;57848;51.938;15.520;2024-01-30T04:30:10;3.81;74.20
70421;SHT31;57848;51.938;15.520;2024-01-30T04:32:36;3.78;74.33
70421;SHT31;57848;51.938;15.520;2024-01-30T04:35:02;3.77;74.30
70421;SHT31;57848;51.938;15.520;2024-01-30T04:37:27;3.78;74.33
70421;SHT31;57848;51.938;15.520;2024-01-30T04:39:53;3.78;74.29
70421;SHT31;57848;51.938;15.520;2024-01-30T04:42:19;3.83;74.30
70421;SHT31;57848;51.938;15.520;2024-01-30T04:44:44;3.75;74.35
70421;SHT31;57848;51.938;15.520;2024-01-30T04:47:10;3.75;74.55
70421;SHT31;57848;51.938;15.520;2024-01-30T04:49:38;3.73;74.66
70421;SHT31;57848;51.938;15.520;2024-01-30T04:52:04;3.67;74.82
70421;SHT31;57848;51.938;15.520;2024-01-30T04:54:30;3.67;74.65
70421;SHT31;57848;51.938;15.520;2024-01-30T04:56:55;3.69;74.85
70421;SHT31;57848;51.938;15.520;2024-01-30T04:59:20;3.70;74.65
70421;SHT31;57848;51.938;15.520;2024-01-30T05:01:46;3.73;74.68
70421;SHT31;57848;51.938;15.520;2024-01-30T05:04:11;3.73;74.70
70421;SHT31;57848;51.938;15.520;2024-01-30T05:06:37;3.77;74.53
70421;SHT31;57848;51.938;15.520;2024-01-30T05:09:02;3.78;74.43
70421;SHT31;57848;51.938;15.520;2024-01-30T05:11:30;3.78;74.43
70421;SHT31;57848;51.938;15.520;2024-01-30T05:13:55;3.78;74.35
70421;SHT31;57848;51.938;15.520;2024-01-30T05:16:20;3.77;74.31
70421;SHT31;57848;51.938;15.520;2024-01-30T05:18:45;3.78;74.59
70421;SHT31;57848;51.938;15.520;2024-01-30T05:21:11;3.83;74.25
70421;SHT31;57848;51.938;15.520;2024-01-30T05:23:36;3.84;74.20
70421;SHT31;57848;51.938;15.520;2024-01-30T05:26:02;3.84;74.05
70421;SHT31;57848;51.938;15.520;2024-01-30T05:28:29;3.90;74.36
70421;SHT31;57848;51.938;15.520;2024-01-30T05:30:54;3.91;74.03
70421;SHT31;57848;51.938;15.520;2024-01-30T05:33:20;3.88;73.98
70421;SHT31;57848;51.938;15.520;2024-01-30T05:35:45;3.90;74.05
70421;SHT31;57848;51.938;15.520;2024-01-30T05:38:11;3.88;74.05
70421;SHT31;57848;51.938;15.520;2024-01-30T05:40:36;3.85;74.23
70421;SHT31;57848;51.938;15.520;2024-01-30T05:43:01;3.77;74.30
70421;SHT31;57848;51.938;15.520;2024-01-30T05:45:27;3.84;74.19
70421;SHT31;57848;51.938;15.520;2024-01-30T05:47:53;3.84;74.13
70421;SHT31;57848;51.938;15.520;2024-01-30T05:50:21;3.81;74.15
70421;SHT31;57848;51.938;15.520;2024-01-30T05:52:48;3.87;73.96
70421;SHT31;57848;51.938;15.520;2024-01-30T05:55:14;3.84;74.02
70421;SHT31;57848;51.938;15.520;2024-01-30T05:57:39;3.83;74.07
70421;SHT31;57848;51.938;15.520;2024-01-30T06:00:05;3.83;74.11
70421;SHT31;57848;51.938;15.520;2024-01-30T06:02:32;3.81;74.04
70421;SHT31;57848;51.938;15.520;2024-01-30T06:04:58;3.81;74.19
70421;SHT31;57848;51.938;15.520;2024-01-30T06:07:23;3.80;74.26
70421;SHT31;57848;51.938;15.520;2024-01-30T06:09:48;3.74;74.29
70421;SHT31;57848;51.938;15.520;2024-01-30T06:12:14;3.75;74.48
70421;SHT31;57848;51.938;15.520;2024-01-30T06:14:39;3.73;74.49
70421;SHT31;57848;51.938;15.520;2024-01-30T06:17:04;3.66;74.80
70421;SHT31;57848;51.938;15.520;2024-01-30T06:19:30;3.64;74.86
70421;SHT31;57848;51.938;15.520;2024-01-30T06:21:55;3.60;74.95
70421;SHT31;57848;51.938;15.520;2024-01-30T06:24:20;3.59;75.12
70421;SHT31;57848;51.938;15.520;2024-01-30T06:26:46;3.59;75.18
70421;SHT31;57848;51.938;15.520;2024-01-30T06:29:11;3.53;75.17
70421;SHT31;57848;51.938;15.520;2024-01-30T06:31:42;3.56;75.11
70421;SHT31;57848;51.938;15.520;2024-01-30T06:34:08;3.57;75.20
70421;SHT31;57848;51.938;15.520;2024-01-30T06:36:34;3.54;75.21
70421;SHT31;57848;51.938;15.520;2024-01-30T06:38:59;3.59;75.32
70421;SHT31;57848;51.938;15.520;2024-01-30T06:41:25;3.63;75.10
70421;SHT31;57848;51.938;15.520;2024-01-30T06:43:50;3.67;74.86
70421;SHT31;57848;51.938;15.520;2024-01-30T06:46:15;3.66;74.90
70421;SHT31;57848;51.938;15.520;2024-01-30T06:48:41;3.69;74.77
70421;SHT31;57848;51.938;15.520;2024-01-30T06:51:09;3.75;74.63
70421;SHT31;57848;51.938;15.520;2024-01-30T06:53:34;3.77;74.49
70421;SHT31;57848;51.938;15.520;2024-01-30T06:56:00;3.84;74.33
70421;SHT31;57848;51.938;15.520;2024-01-30T06:58:25;3.84;74.45
70421;SHT31;57848;51.938;15.520;2024-01-30T07:00:51;3.90;74.15
70421;SHT31;57848;51.938;15.520;2024-01-30T07:03:16;3.91;74.06
70421;SHT31;57848;51.938;15.520;2024-01-30T07:05:42;3.97;74.23
70421;SHT31;57848;51.938;15.520;2024-01-30T07:08:07;4.04;73.75
70421;SHT31;57848;51.938;15.520;2024-01-30T07:10:33;4.09;73.72
70421;SHT31;57848;51.938;15.520;2024-01-30T07:13:00;4.14;73.60
70421;SHT31;57848;51.938;15.520;2024-01-30T07:15:26;4.12;73.58
70421;SHT31;57848;51.938;15.520;2024-01-30T07:17:51;4.16;73.37
70421;SHT31;57848;51.938;15.520;2024-01-30T07:20:16;4.21;73.41
70421;SHT31;57848;51.938;15.520;2024-01-30T07:22:43;4.21;73.40
70421;SHT31;57848;51.938;15.520;2024-01-30T07:25:09;4.24;73.23
70421;SHT31;57848;51.938;15.520;2024-01-30T07:27:34;4.35;73.21
70421;SHT31;57848;51.938;15.520;2024-01-30T07:29:59;4.38;72.87
70421;SHT31;57848;51.938;15.520;2024-01-30T07:32:25;4.41;72.82
70421;SHT31;57848;51.938;15.520;2024-01-30T07:34:50;4.53;72.55
70421;SHT31;57848;51.938;15.520;2024-01-30T07:37:15;4.52;72.54
70421;SHT31;57848;51.938;15.520;2024-01-30T07:39:41;4.55;72.33
70421;SHT31;57848;51.938;15.520;2024-01-30T07:42:07;4.59;72.27
70421;SHT31;57848;51.938;15.520;2024-01-30T07:44:33;4.65;72.28
70421;SHT31;57848;51.938;15.520;2024-01-30T07:46:59;4.69;72.19
70421;SHT31;57848;51.938;15.520;2024-01-30T07:49:24;4.79;71.91
70421;SHT31;57848;51.938;15.520;2024-01-30T07:51:50;4.76;71.97
70421;SHT31;57848;51.938;15.520;2024-01-30T07:54:15;4.83;71.79
70421;SHT31;57848;51.938;15.520;2024-01-30T07:56:41;4.87;71.61
70421;SHT31;57848;51.938;15.520;2024-01-30T07:59:10;4.86;71.76
70421;SHT31;57848;51.938;15.520;2024-01-30T08:01:36;4.90;71.74
70421;SHT31;57848;51.938;15.520;2024-01-30T08:04:01;4.94;71.94
70421;SHT31;57848;51.938;15.520;2024-01-30T08:06:27;4.98;71.42
70421;SHT31;57848;51.938;15.520;2024-01-30T08:08:52;5.01;71.34
70421;SHT31;57848;51.938;15.520;2024-01-30T08:11:20;5.03;71.43
70421;SHT31;57848;51.938;15.520;2024-01-30T08:13:45;5.05;71.46
70421;SHT31;57848;51.938;15.520;2024-01-30T08:16:11;5.08;71.35
70421;SHT31;57848;51.938;15.520;2024-01-30T08:18:36;5.10;71.56
70421;SHT31;57848;51.938;15.520;2024-01-30T08:21:01;5.03;71.54
70421;SHT31;57848;51.938;15.520;2024-01-30T08:23:27;5.04;71.60
70421;SHT31;57848;51.938;15.520;2024-01-30T08:25:52;5.00;71.72
70421;SHT31;57848;51.938;15.520;2024-01-30T08:28:17;5.01;71.74
70421;SHT31;57848;51.938;15.520;2024-01-30T08:30:43;4.98;71.89
70421;SHT31;57848;51.938;15.520;2024-01-30T08:33:08;4.97;71.89
70421;SHT31;57848;51.938;15.520;2024-01-30T08:35:33;4.95;71.95
70421;SHT31;57848;51.938;15.520;2024-01-30T08:37:59;4.94;72.08
70421;SHT31;57848;51.938;15.520;2024-01-30T08:40:25;4.98;72.04
70421;SHT31;57848;51.938;15.520;2024-01-30T08:42:50;4.93;72.23
70421;SHT31;57848;51.938;15.520;2024-01-30T08:45:16;4.98;72.13
70421;SHT31;57848;51.938;15.520;2024-01-30T08:47:41;4.98;72.35
70421;SHT31;57848;51.938;15.520;2024-01-30T08:50:07;5.07;72.03
70421;SHT31;57848;51.938;15.520;2024-01-30T08:52:32;5.08;72.10
70421;SHT31;57848;51.938;15.520;2024-01-30T08:54:59;5.11;72.16
70421;SHT31;57848;51.938;15.520;2024-01-30T08:57:24;5.14;72.10
70421;SHT31;57848;51.938;15.520;2024-01-30T08:59:53;5.18;72.12
70421;SHT31;57848;51.938;15.520;2024-01-30T09:02:19;5.21;72.07
70421;SHT31;57848;51.938;15.520;2024-01-30T09:04:44;5.27;71.90
70421;SHT31;57848;51.938;15.520;2024-01-30T09:07:09;5.27;71.62
70421;SHT31;57848;51.938;15.520;2024-01-30T09:09:35;5.32;71.76
70421;SHT31;57848;51.938;15.520;2024-01-30T09:12:00;5.31;71.78
70421;SHT31;57848;51.938;15.520;2024-01-30T09:14:32;5.39;71.70
70421;SHT31;57848;51.938;15.520;2024-01-30T09:16:57;5.42;71.69
70421;SHT31;57848;51.938;15.520;2024-01-30T09:19:22;5.48;71.43
70421;SHT31;57848;51.938;15.520;2024-01-30T09:21:48;5.49;71.75
70421;SHT31;57848;51.938;15.520;2024-01-30T09:24:13;5.58;71.55
70421;SHT31;57848;51.938;15.520;2024-01-30T09:26:38;5.62;71.49
70421;SHT31;57848;51.938;15.520;2024-01-30T09:29:04;5.67;71.13
70421;SHT31;57848;51.938;15.520;2024-01-30T09:31:29;5.76;70.86
70421;SHT31;57848;51.938;15.520;2024-01-30T09:33:55;5.83;70.79
70421;SHT31;57848;51.938;15.520;2024-01-30T09:36:20;5.85;70.66
70421;SHT31;57848;51.938;15.520;2024-01-30T09:38:46;5.96;70.60
70421;SHT31;57848;51.938;15.520;2024-01-30T09:41:12;6.04;70.76
70421;SHT31;57848;51.938;15.520;2024-01-30T09:43:38;6.17;70.57
70421;SHT31;57848;51.938;15.520;2024-01-30T09:46:05;6.30;70.23
70421;SHT31;57848;51.938;15.520;2024-01-30T09:48:32;6.38;69.73
70421;SHT31;57848;51.938;15.520;2024-01-30T09:50:57;6.48;69.78
70421;SHT31;57848;51.938;15.520;2024-01-30T09:53:23;6.61;69.59
70421;SHT31;57848;51.938;15.520;2024-01-30T09:55:50;6.69;69.05
70421;SHT31;57848;51.938;15.520;2024-01-30T09:58:16;6.78;69.12
70421;SHT31;57848;51.938;15.520;2024-01-30T10:00:41;6.75;68.68
70421;SHT31;57848;51.938;15.520;2024-01-30T10:03:06;7.00;68.37
70421;SHT31;57848;51.938;15.520;2024-01-30T10:05:32;7.16;67.73
70421;SHT31;57848;51.938;15.520;2024-01-30T10:08:05;7.98;66.20
70421;SHT31;57848;51.938;15.520;2024-01-30T10:10:31;9.12;62.76
70421;SHT31;57848;51.938;15.520;2024-01-30T10:12:56;9.93;60.28
70421;SHT31;57848;51.938;15.520;2024-01-30T10:15:21;10.14;59.25
70421;SHT31;57848;51.938;15.520;2024-01-30T10:17:47;10.80;58.35
70421;SHT31;57848;51.938;15.520;2024-01-30T10:20:12;11.19;57.31
70421;SHT31;57848;51.938;15.520;2024-01-30T10:22:40;11.55;56.43
70421;SHT31;57848;51.938;15.520;2024-01-30T10:25:06;11.74;55.70
70421;SHT31;57848;51.938;15.520;2024-01-30T10:27:31;11.61;55.63
70421;SHT31;57848;51.938;15.520;2024-01-30T10:29:57;12.22;53.90
70421;SHT31;57848;51.938;15.520;2024-01-30T10:32:23;12.28;54.31
70421;SHT31;57848;51.938;15.520;2024-01-30T10:34:48;12.83;53.40
70421;SHT31;57848;51.938;15.520;2024-01-30T10:37:15;13.01;52.83
70421;SHT31;57848;51.938;15.520;2024-01-30T10:39:43;12.39;53.10
70421;SHT31;57848;51.938;15.520;2024-01-30T10:42:12;11.53;55.04
70421;SHT31;57848;51.938;15.520;2024-01-30T10:47:12;10.46;58.35
70421;SHT31;57848;51.938;15.520;2024-01-30T10:49:41;10.41;59.20
70421;SHT31;57848;51.938;15.520;2024-01-30T10:52:09;10.54;59.05
70421;SHT31;57848;51.938;15.520;2024-01-30T10:54:36;11.17;58.04
70421;SHT31;57848;51.938;15.520;2024-01-30T10:57:03;12.08;55.24
70421;SHT31;57848;51.938;15.520;2024-01-30T10:59:30;12.44;54.12
70421;SHT31;57848;51.938;15.520;2024-01-30T11:01:57;12.92;52.78
70421;SHT31;57848;51.938;15.520;2024-01-30T11:04:23;13.41;52.52
70421;SHT31;57848;51.938;15.520;2024-01-30T11:06:50;13.90;50.62
70421;SHT31;57848;51.938;15.520;2024-01-30T11:09:17;14.57;50.24
70421;SHT31;57848;51.938;15.520;2024-01-30T11:14:15;14.85;48.57
70421;SHT31;57848;51.938;15.520;2024-01-30T11:16:40;15.17;48.16
70421;SHT31;57848;51.938;15.520;2024-01-30T11:19:10;14.86;48.03
70421;SHT31;57848;51.938;15.520;2024-01-30T11:21:42;14.62;48.01
70421;SHT31;57848;51.938;15.520;2024-01-30T11:24:08;14.52;48.12
70421;SHT31;57848;51.938;15.520;2024-01-30T11:26:33;14.89;47.73
70421;SHT31;57848;51.938;15.520;2024-01-30T11:29:03;15.19;46.57
70421;SHT31;57848;51.938;15.520;2024-01-30T11:31:29;14.75;47.20
70421;SHT31;57848;51.938;15.520;2024-01-30T11:33:56;14.88;47.00
70421;SHT31;57848;51.938;15.520;2024-01-30T11:36:25;15.22;46.95
70421;SHT31;57848;51.938;15.520;2024-01-30T11:38:51;15.64;46.23
70421;SHT31;57848;51.938;15.520;2024-01-30T11:41:17;14.95;46.58
70421;SHT31;57848;51.938;15.520;2024-01-30T11:43:43;14.62;47.12
70421;SHT31;57848;51.938;15.520;2024-01-30T11:46:08;14.30;47.93
70421;SHT31;57848;51.938;15.520;2024-01-30T11:48:35;14.30;48.52
70421;SHT31;57848;51.938;15.520;2024-01-30T11:51:00;14.22;48.69
70421;SHT31;57848;51.938;15.520;2024-01-30T11:53:25;14.22;48.44
70421;SHT31;57848;51.938;15.520;2024-01-30T11:55:51;14.67;48.18
70421;SHT31;57848;51.938;15.520;2024-01-30T11:58:17;14.86;48.15
70421;SHT31;57848;51.938;15.520;2024-01-30T12:00:52;14.71;47.50
70421;SHT31;57848;51.938;15.520;2024-01-30T12:03:18;15.33;46.67
70421;SHT31;57848;51.938;15.520;2024-01-30T12:05:43;16.05;45.31
70421;SHT31;57848;51.938;15.520;2024-01-30T12:08:15;16.12;45.37
70421;SHT31;57848;51.938;15.520;2024-01-30T12:10:41;15.60;45.18
70421;SHT31;57848;51.938;15.520;2024-01-30T12:13:07;16.13;44.99
70421;SHT31;57848;51.938;15.520;2024-01-30T12:15:32;16.13;45.42
70421;SHT31;57848;51.938;15.520;2024-01-30T12:18:05;15.03;45.80
70421;SHT31;57848;51.938;15.520;2024-01-30T12:20:31;14.16;48.08
70421;SHT31;57848;51.938;15.520;2024-01-30T12:22:56;13.84;49.09
70421;SHT31;57848;51.938;15.520;2024-01-30T12:25:21;13.35;49.90
70421;SHT31;57848;51.938;15.520;2024-01-30T12:27:49;12.98;50.59
70421;SHT31;57848;51.938;15.520;2024-01-30T12:30:16;12.63;51.24
70421;SHT31;57848;51.938;15.520;2024-01-30T12:32:42;12.47;51.90
70421;SHT31;57848;51.938;15.520;2024-01-30T12:35:12;12.36;52.28
70421;SHT31;57848;51.938;15.520;2024-01-30T12:37:39;12.23;52.70
70421;SHT31;57848;51.938;15.520;2024-01-30T12:40:04;12.11;52.92
70421;SHT31;57848;51.938;15.520;2024-01-30T12:42:31;12.12;52.80
70421;SHT31;57848;51.938;15.520;2024-01-30T12:45:00;12.03;53.21
70421;SHT31;57848;51.938;15.520;2024-01-30T12:47:26;12.01;53.25
70421;SHT31;57848;51.938;15.520;2024-01-30T12:49:52;11.89;53.55
70421;SHT31;57848;51.938;15.520;2024-01-30T12:52:19;11.92;53.47
70421;SHT31;57848;51.938;15.520;2024-01-30T12:54:45;11.86;53.20
70421;SHT31;57848;51.938;15.520;2024-01-30T12:57:10;11.82;53.49
70421;SHT31;57848;51.938;15.520;2024-01-30T12:59:36;11.78;53.41
70421;SHT31;57848;51.938;15.520;2024-01-30T13:02:01;11.75;53.99
70421;SHT31;57848;51.938;15.520;2024-01-30T13:04:28;11.85;53.58
70421;SHT31;57848;51.938;15.520;2024-01-30T13:06:53;11.67;53.61
70421;SHT31;57848;51.938;15.520;2024-01-30T13:09:19;11.77;53.35
70421;SHT31;57848;51.938;15.520;2024-01-30T13:11:45;11.68;53.39
70421;SHT31;57848;51.938;15.520;2024-01-30T13:14:10;11.68;53.62
70421;SHT31;57848;51.938;15.520;2024-01-30T13:16:35;11.68;53.74
70421;SHT31;57848;51.938;15.520;2024-01-30T13:19:01;11.61;54.21
70421;SHT31;57848;51.938;15.520;2024-01-30T13:21:27;11.65;54.16
70421;SHT31;57848;51.938;15.520;2024-01-30T13:23:53;11.54;54.75
70421;SHT31;57848;51.938;15.520;2024-01-30T13:26:20;11.53;54.69
70421;SHT31;57848;51.938;15.520;2024-01-30T13:28:45;11.38;54.66
70421;SHT31;57848;51.938;15.520;2024-01-30T13:31:11;11.27;54.35
70421;SHT31;57848;51.938;15.520;2024-01-30T13:33:37;11.34;54.35
70421;SHT31;57848;51.938;15.520;2024-01-30T13:36:02;11.23;53.75
70421;SHT31;57848;51.938;15.520;2024-01-30T13:38:27;11.22;53.22
70421;SHT31;57848;51.938;15.520;2024-01-30T13:40:53;11.04;53.36
70421;SHT31;57848;51.938;15.520;2024-01-30T13:43:18;11.02;53.55
70421;SHT31;57848;51.938;15.520;2024-01-30T13:45:43;10.99;53.60
70421;SHT31;57848;51.938;15.520;2024-01-30T13:48:09;10.97;53.09
70421;SHT31;57848;51.938;15.520;2024-01-30T13:50:34;11.10;52.83
70421;SHT31;57848;51.938;15.520;2024-01-30T13:53:00;11.09;53.19
70421;SHT31;57848;51.938;15.520;2024-01-30T13:55:25;11.09;53.81
70421;SHT31;57848;51.938;15.520;2024-01-30T13:57:51;10.97;53.63
70421;SHT31;57848;51.938;15.520;2024-01-30T14:00:16;10.93;53.48
70421;SHT31;57848;51.938;15.520;2024-01-30T14:02:42;10.88;53.59
70421;SHT31;57848;51.938;15.520;2024-01-30T14:05:08;10.69;53.70
70421;SHT31;57848;51.938;15.520;2024-01-30T14:07:35;10.63;53.73
70421;SHT31;57848;51.938;15.520;2024-01-30T14:10:00;10.63;53.54
70421;SHT31;57848;51.938;15.520;2024-01-30T14:12:25;10.61;53.84
70421;SHT31;57848;51.938;15.520;2024-01-30T14:14:51;10.52;54.16
70421;SHT31;57848;51.938;15.520;2024-01-30T14:17:16;10.49;54.04
70421;SHT31;57848;51.938;15.520;2024-01-30T14:19:42;10.41;54.75
70421;SHT31;57848;51.938;15.520;2024-01-30T14:22:07;10.30;55.23
70421;SHT31;57848;51.938;15.520;2024-01-30T14:24:33;10.20;54.94
70421;SHT31;57848;51.938;15.520;2024-01-30T14:26:58;10.15;55.25
70421;SHT31;57848;51.938;15.520;2024-01-30T14:29:24;10.13;55.45
70421;SHT31;57848;51.938;15.520;2024-01-30T14:31:50;10.07;55.28
70421;SHT31;57848;51.938;15.520;2024-01-30T14:34:15;9.91;55.81
70421;SHT31;57848;51.938;15.520;2024-01-30T14:36:40;9.90;55.95
70421;SHT31;57848;51.938;15.520;2024-01-30T14:39:06;9.87;56.06
70421;SHT31;57848;51.938;15.520;2024-01-30T14:41:32;9.77;56.44
70421;SHT31;57848;51.938;15.520;2024-01-30T14:43:57;9.74;57.00
70421;SHT31;57848;51.938;15.520;2024-01-30T14:46:23;9.67;57.08
70421;SHT31;57848;51.938;15.520;2024-01-30T14:48:48;9.63;57.85
70421;SHT31;57848;51.938;15.520;2024-01-30T14:51:16;9.49;58.08
70421;SHT31;57848;51.938;15.520;2024-01-30T14:53:42;9.40;58.24
70421;SHT31;57848;51.938;15.520;2024-01-30T14:56:08;9.36;58.56
70421;SHT31;57848;51.938;15.520;2024-01-30T14:58:33;9.28;58.57
70421;SHT31;57848;51.938;15.520;2024-01-30T15:00:59;9.22;58.77
70421;SHT31;57848;51.938;15.520;2024-01-30T15:03:26;9.12;59.03
70421;SHT31;57848;51.938;15.520;2024-01-30T15:05:52;9.04;59.34
70421;SHT31;57848;51.938;15.520;2024-01-30T15:08:17;8.88;60.13
70421;SHT31;57848;51.938;15.520;2024-01-30T15:10:42;8.81;59.92
70421;SHT31;57848;51.938;15.520;2024-01-30T15:13:08;8.73;60.37
70421;SHT31;57848;51.938;15.520;2024-01-30T15:15:33;8.68;60.57
70421;SHT31;57848;51.938;15.520;2024-01-30T15:17:59;8.61;60.77
70421;SHT31;57848;51.938;15.520;2024-01-30T15:20:24;8.47;60.85
70421;SHT31;57848;51.938;15.520;2024-01-30T15:22:50;8.37;61.09